createdAt,value
2018-12-20T00:00:07.241Z,-2.00
2018-12-20T00:05:17.675Z,-1.90
2018-12-20T00:10:24.670Z,-2.00
2018-12-20T00:15:32.579Z,-2.10
2018-12-20T00:20:38.446Z,-2.00
2018-12-20T00:25:44.276Z,-2.00
2018-12-20T00:30:50.661Z,-2.00
2018-12-20T00:42:11.190Z,-2.10
2018-12-20T00:47:17.296Z,-2.00
2018-12-20T00:52:23.981Z,-2.10
2018-12-20T00:57:37.111Z,-2.00
2018-12-20T01:02:44.101Z,-2.00
2018-12-20T01:07:50.883Z,-2.00
2018-12-20T01:12:56.697Z,-2.00
2018-12-20T01:18:10.371Z,-2.00
2018-12-20T01:23:16.497Z,-2.00
2018-12-20T01:28:22.437Z,-2.00
2018-12-20T01:33:28.381Z,-2.00
2018-12-20T01:38:39.417Z,-2.00
2018-12-20T01:43:49.627Z,-2.00
2018-12-20T01:48:56.500Z,-2.10
2018-12-20T01:54:02.663Z,-2.10
2018-12-20T01:59:13.996Z,-2.10
2018-12-20T02:04:26.888Z,-2.20
2018-12-20T02:09:33.219Z,-2.20
2018-12-20T02:14:41.960Z,-2.10
2018-12-20T02:19:49.021Z,-2.10
2018-12-20T02:24:56.293Z,-2.10
2018-12-20T02:30:02.211Z,-2.10
2018-12-20T02:35:08.266Z,-2.20
2018-12-20T02:40:15.257Z,-2.20
2018-12-20T02:45:22.639Z,-2.10
2018-12-20T02:50:34.470Z,-2.20
2018-12-20T02:55:40.575Z,-2.10
2018-12-20T03:00:46.412Z,-2.10
2018-12-20T03:06:06.355Z,-2.10
2018-12-20T03:11:19.999Z,-2.10
2018-12-20T03:16:28.687Z,-2.20
2018-12-20T03:21:42.564Z,-2.10
2018-12-20T03:32:22.954Z,-2.10
2018-12-20T03:37:34.590Z,-2.20
2018-12-20T03:42:45.727Z,-2.10
2018-12-20T03:47:53.970Z,-2.10
2018-12-20T03:53:02.722Z,-2.20
2018-12-20T03:58:09.682Z,-2.10
2018-12-20T04:03:16.043Z,-2.10
2018-12-20T04:08:22.122Z,-2.20
2018-12-20T04:13:29.253Z,-2.20
2018-12-20T04:18:35.630Z,-2.20
2018-12-20T04:23:41.894Z,-2.20
2018-12-20T04:28:48.751Z,-2.20
2018-12-20T04:33:58.647Z,-2.10
2018-12-20T04:39:13.322Z,-2.20
2018-12-20T04:44:24.323Z,-2.20
2018-12-20T04:49:30.044Z,-2.10
2018-12-20T04:54:36.939Z,-2.20
2018-12-20T04:59:46.269Z,-2.10
2018-12-20T05:05:02.026Z,-2.20
2018-12-20T05:10:10.831Z,-2.20
2018-12-20T05:15:16.947Z,-2.20
2018-12-20T05:20:26.177Z,-2.20
2018-12-20T05:25:33.616Z,-2.20
2018-12-20T05:30:39.522Z,-2.20
2018-12-20T05:35:46.255Z,-2.20
2018-12-20T05:40:58.131Z,-2.20
2018-12-20T05:46:04.737Z,-2.20
2018-12-20T05:51:17.109Z,-2.20
2018-12-20T05:56:27.618Z,-2.20
2018-12-20T06:01:34.969Z,-2.20
2018-12-20T06:06:42.151Z,-2.10
2018-12-20T06:11:48.714Z,-2.10
2018-12-20T06:16:54.593Z,-2.10
2018-12-20T06:22:09.345Z,-2.10
2018-12-20T06:27:15.254Z,-2.10
2018-12-20T06:32:22.169Z,-2.20
2018-12-20T06:55:25.891Z,-2.10
2018-12-20T07:00:31.610Z,-2.10
2018-12-20T07:05:37.677Z,-2.20
2018-12-20T07:10:45.365Z,-2.20
2018-12-20T07:15:51.872Z,-2.10
2018-12-20T07:20:57.741Z,-2.10
2018-12-20T07:26:04.857Z,-2.10
2018-12-20T07:31:23.204Z,-2.10
2018-12-20T07:36:31.141Z,-2.00
2018-12-20T07:41:37.993Z,-2.10
2018-12-20T07:46:43.984Z,-2.10
2018-12-20T07:51:49.979Z,-2.00
2018-12-20T07:56:55.671Z,-2.00
2018-12-20T08:02:07.027Z,-2.00
2018-12-20T08:07:20.014Z,-1.90
2018-12-20T08:12:25.853Z,-1.90
2018-12-20T08:17:31.713Z,-1.90
2018-12-20T08:22:38.927Z,-1.80
2018-12-20T08:27:44.740Z,-1.80
2018-12-20T08:32:51.509Z,-1.70
2018-12-20T08:37:57.474Z,-1.70
2018-12-20T08:50:38.489Z,-1.60
2018-12-20T10:06:18.540Z,-1.40
2018-12-20T10:11:25.216Z,-1.40
2018-12-20T10:16:31.161Z,-1.40
2018-12-20T10:21:37.050Z,-1.40
2018-12-20T10:26:42.832Z,-1.40
2018-12-20T10:31:48.579Z,-1.40
2018-12-20T10:36:58.496Z,-1.30
2018-12-20T10:42:04.297Z,-1.30
2018-12-20T10:47:15.814Z,-1.30
2018-12-20T10:52:21.904Z,-1.30
2018-12-20T10:57:30.643Z,-1.30
2018-12-20T11:02:41.887Z,-1.30
2018-12-20T11:07:53.118Z,-1.30
2018-12-20T11:13:00.855Z,-1.30
2018-12-20T11:18:06.637Z,-1.40
2018-12-20T11:23:12.641Z,-1.40
2018-12-20T11:28:18.541Z,-1.40
2018-12-20T11:33:27.944Z,-1.40
2018-12-20T11:38:45.925Z,-1.40
2018-12-20T11:43:54.315Z,-1.40
2018-12-20T11:49:05.087Z,-1.30
2018-12-20T11:54:11.114Z,-1.30
2018-12-20T11:59:16.774Z,-1.20
2018-12-20T12:04:22.697Z,-1.20
2018-12-20T12:09:28.627Z,-1.30
2018-12-20T12:14:40.815Z,-1.20
2018-12-20T12:19:46.476Z,-1.30
2018-12-20T12:24:52.662Z,-1.20
2018-12-20T12:30:00.869Z,-1.20
2018-12-20T12:35:09.855Z,-1.20
2018-12-20T12:40:16.581Z,-1.20
2018-12-20T12:45:22.396Z,-1.20
2018-12-20T12:50:28.350Z,-1.20
2018-12-20T12:55:43.188Z,-1.20
2018-12-20T13:00:50.002Z,-1.20
2018-12-20T13:05:56.028Z,-1.20
2018-12-20T13:16:35.679Z,-1.30
2018-12-20T13:21:42.622Z,-1.40
2018-12-20T13:26:49.428Z,-1.40
2018-12-20T13:32:00.355Z,-1.40
2018-12-20T13:37:06.322Z,-1.40
2018-12-20T13:42:15.939Z,-1.40
2018-12-20T13:47:22.080Z,-1.40
2018-12-20T13:52:35.259Z,-1.40
2018-12-20T13:57:44.300Z,-1.50
2018-12-20T14:02:55.566Z,-1.50
2018-12-20T14:08:14.438Z,-1.50
2018-12-20T14:13:20.720Z,-1.50
2018-12-20T14:18:30.923Z,-1.60
2018-12-20T14:23:34.228Z,-1.60
2018-12-20T14:28:39.985Z,-1.60
2018-12-20T14:33:46.037Z,-1.60
2018-12-20T14:38:52.705Z,-1.60
2018-12-20T14:43:58.481Z,-1.70
2018-12-20T14:49:05.534Z,-1.60
2018-12-20T14:54:12.350Z,-1.60
2018-12-20T14:59:18.268Z,-1.60
2018-12-20T15:04:24.051Z,-1.70
2018-12-20T15:09:29.813Z,-1.70
2018-12-20T15:14:40.596Z,-1.60
2018-12-20T15:19:46.546Z,-1.70
2018-12-20T15:25:03.171Z,-1.60
2018-12-20T15:30:12.150Z,-1.70
2018-12-20T15:35:18.074Z,-1.70
2018-12-20T15:40:24.652Z,-1.60
2018-12-20T15:45:30.481Z,-1.60
2018-12-20T15:50:36.423Z,-1.60
2018-12-20T15:55:43.301Z,-1.60
2018-12-20T16:00:49.685Z,-1.60
2018-12-20T16:05:56.473Z,-1.60
2018-12-20T16:11:02.261Z,-1.60
2018-12-20T16:16:10.149Z,-1.60
2018-12-20T16:21:15.831Z,-1.60
2018-12-20T16:26:21.724Z,-1.60
2018-12-20T16:31:27.551Z,-1.60
2018-12-20T16:36:33.562Z,-1.50
2018-12-20T16:41:42.174Z,-1.60
2018-12-20T16:46:48.338Z,-1.50
2018-12-20T16:51:54.185Z,-1.60
2018-12-20T16:57:02.522Z,-1.60
2018-12-20T17:02:10.670Z,-1.50
2018-12-20T17:07:17.531Z,-1.50
2018-12-20T17:12:24.341Z,-1.60
2018-12-20T17:17:30.420Z,-1.60
2018-12-20T17:22:43.478Z,-1.50
2018-12-20T17:27:49.378Z,-1.50
2018-12-20T17:32:55.467Z,-1.50
2018-12-20T17:38:02.576Z,-1.50
2018-12-20T17:43:15.421Z,-1.50
2018-12-20T17:48:29.118Z,-1.50
2018-12-20T17:53:29.430Z,-1.50
2018-12-20T17:58:35.312Z,-1.40
2018-12-20T18:03:42.140Z,-1.40
2018-12-20T18:08:50.963Z,-1.40
2018-12-20T18:13:56.931Z,-1.40
2018-12-20T18:19:04.077Z,-1.40
2018-12-20T18:24:10.272Z,-1.40
2018-12-20T18:29:17.242Z,-1.40
2018-12-20T18:34:24.695Z,-1.30
2018-12-20T18:39:31.980Z,-1.40
2018-12-20T18:44:39.255Z,-1.40
2018-12-20T18:49:47.701Z,-1.30
2018-12-20T18:54:55.029Z,-1.30
2018-12-20T19:00:00.864Z,-1.30
2018-12-20T19:05:08.849Z,-1.30
2018-12-20T19:10:16.034Z,-1.20
2018-12-20T19:15:23.378Z,-1.30
2018-12-20T19:20:30.785Z,-1.30
2018-12-20T19:25:38.793Z,-1.30
2018-12-20T19:30:44.634Z,-1.20
2018-12-20T19:35:50.743Z,-1.20
2018-12-20T19:41:02.903Z,-1.20
2018-12-20T19:46:08.862Z,-1.20
2018-12-20T19:51:14.644Z,-1.20
2018-12-20T19:56:20.445Z,-1.20
2018-12-20T20:01:26.227Z,-1.20
2018-12-20T20:06:32.409Z,-1.20
2018-12-20T20:11:40.738Z,-1.20
2018-12-20T20:16:50.899Z,-1.20
2018-12-20T20:21:56.380Z,-1.10
2018-12-20T20:27:02.310Z,-1.10
2018-12-20T20:32:09.501Z,-1.10
2018-12-20T20:37:18.017Z,-1.00
2018-12-20T20:42:24.811Z,-1.10
2018-12-20T20:47:30.667Z,-1.10
2018-12-20T20:52:36.555Z,-1.00
2018-12-20T20:57:42.864Z,-1.00
2018-12-20T21:02:50.961Z,-1.00
2018-12-20T21:07:57.018Z,-1.00
2018-12-20T21:13:03.936Z,-1.00
2018-12-20T21:18:11.867Z,-1.00
2018-12-20T21:23:19.745Z,-1.00
2018-12-20T21:28:25.904Z,-1.00
2018-12-20T21:33:32.985Z,-1.10
2018-12-20T21:38:39.447Z,-1.00
2018-12-20T21:43:45.259Z,-1.00
2018-12-20T21:48:51.409Z,-1.00
2018-12-20T21:53:57.270Z,-1.00
2018-12-20T21:59:05.306Z,-1.00
2018-12-20T22:04:11.631Z,-0.90
2018-12-20T22:09:17.921Z,-0.90
2018-12-20T22:14:23.735Z,-0.90
2018-12-20T22:19:32.389Z,-0.90
2018-12-20T22:24:38.207Z,-0.90
2018-12-20T22:29:43.938Z,-0.90
2018-12-20T22:34:49.978Z,-0.80
2018-12-20T22:39:56.473Z,-0.80
2018-12-20T22:45:04.001Z,-0.80
2018-12-20T22:50:11.004Z,-0.80
2018-12-20T22:55:19.180Z,-0.80
2018-12-20T23:00:25.056Z,-0.80
2018-12-20T23:05:32.124Z,-0.80
2018-12-20T23:10:38.034Z,-0.80
2018-12-20T23:15:43.906Z,-0.70
2018-12-20T23:20:49.684Z,-0.70
2018-12-20T23:25:56.828Z,-0.70
2018-12-20T23:31:02.892Z,-0.60
2018-12-20T23:36:08.952Z,-0.60
2018-12-20T23:41:14.773Z,-0.60
2018-12-20T23:46:22.319Z,-0.50
2018-12-20T23:51:28.245Z,-0.50
2018-12-20T23:56:34.040Z,-0.50
